Terminal Aerodrome Forecast
Issued by NWS Raleigh/Durham, NC

Home | Current Version | Previous Version | Text Only | Print | Product List | Glossary On
Versions: 1 2 3 4 5 6 7 8 9 10 11 12 13
000
FTUS42 KRAH 120533
TAFFAY
TAF
KFAY 120533Z 1206/1306 20006KT P6SM SKC
     FM121400 24011KT P6SM SCT150
     FM121800 28012G20KT P6SM BKN060
     FM130100 29012G22KT P6SM SKC=

USA.gov is the U.S. government's official web portal to all federal, state and local government web resources and services.